(°C)
15°
15°
14°
14°
14°
14°
14°
(°C)
11°
11°
11°
11°
11°
11°
11°
WSW
WSW
WSW
WSW
WSW
WSW
WSW
(km/h)
21-40
18-37
15-32
14-30
13-29
14-29
15-28
(mm)
0
1.2
1.5
0
0
0
0
(%)
5
35
35
0
0
4
14

Sonnenhöhe

/ -17.4°
sun-icon
UV 7
05:24
21:09
Abnehmender Halbmond (291°)
03:22
14:31

METAR für Niederstetten (ETHN)

Zeit Bedingungen Temperatur/
Taupunkt
Wind Sichtweite Wetter Wolken Druck Änderung Roh
VFR 15°C / 14°C 240º 10kt >10km Light Drizzle Light Rain 0.20mm precipitation Vertical Visibility of 0ft. 1005 - ETHN 240020Z 24010KT 9999 -DZRA BKN041 15/14 Q1005 BLU
VFR 15°C / 14°C 230º 8kt >10km - Few Clouds 3200ft
Scattered Clouds 10000ft
1005 - ETHN 232320Z 23008KT 9999 FEW032 SCT100 15/14 Q1005 BLU+
VFR 15°C / 14°C 240º 9kt >10km - Few Clouds 6000ft
Scattered Clouds 14000ft
1005 - ETHN 232220Z 24009KT 9999 FEW060 SCT140 15/14 Q1005 BLU+
VFR 15°C / 14°C 240º 14kt >10km - Few Clouds 6000ft
Scattered Clouds 14000ft
1004 - ETHN 232120Z 24014KT 9999 FEW060 SCT140 15/14 Q1004 BLU+
VFR 16°C / 14°C 230º 10kt >10km - Few Clouds 11000ft
Broken Clouds 33000ft
1004 - ETHN 232020Z 23010KT 9999 FEW110 BKN330 16/14 Q1004 RESHRA BLU+
VFR 15°C / 14°C 200º 11kt >10km - Few Clouds 4000ft
Scattered Clouds 8000ft
Broken Clouds 16000ft
1003 - ETHN 231947Z 20011KT 9999 FEW040CB SCT080 BKN160 15/14 Q1003 RESHRA BLU
IFR 17°C / 14°C 200º 9kt 3000m Showers Rain 3.00mm precipitation Vertical Visibility of 0ft.
Broken Clouds 8000ft
1004 - ETHN 231925Z 20009KT 3000 SHRA BKN035CB BKN080 17/14 Q1004 YLO
VFR 17°C / 15°C 170º 10kt >10km in the Vicinity Showers Vertical Visibility of 0ft.
Overcast 13000ft
1002 - ETHN 231820Z 17010KT 9999 VCSH FEW020CB OVC130 17/15 Q1002 BLU
VFR 19°C / 16°C 180º 10kt >10km - Few Clouds 2000ft
Scattered Clouds 8000ft
Broken Clouds 13000ft
1003 - ETHN 231720Z 18010KT 9999 FEW020CB SCT080 BKN130 19/16 Q1003 BLU
VFR 21°C / 17°C 210º 7kt >10km - Few Clouds 2000ft
Scattered Clouds 10000ft
Broken Clouds 23000ft
1004 - ETHN 231620Z 21007KT 9999 FEW020 SCT100 BKN230 21/17 Q1004 BLU+
VFR 22°C / 17°C 180º 6kt >10km - Few Clouds 2000ft
Broken Clouds 24000ft
1003 - ETHN 231520Z 18006KT 9999 FEW020 BKN240 22/17 Q1003 BLU+FCST CANCEL
VFR 19°C / 15°C 160º 3kt >10km - Few Clouds 2000ft
Scattered Clouds 6000ft
Broken Clouds 10000ft
1003 Temporary: WHT ETHN 231420Z 16003KT 9999 FEW020 SCT060 BKN100 19/15 Q1003 BLU BLU TEMPO WHT
VFR 17°C / 15°C 160º 12kt >10km - Few Clouds 3500ft
Scattered Clouds 6000ft
Overcast 8000ft
1004 Temporary: WHT ETHN 231320Z 16012KT 9999 FEW035CB SCT060 OVC080 17/15 Q1004 BLU BLU TEMPO WHT
MVFR 19°C / 15°C 220º 7kt 7000m in the Vicinity Showers Vertical Visibility of 0ft.
Scattered Clouds 6000ft
Overcast 10000ft
1007 Temporary: AMB ETHN 231233Z 22007KT 7000 VCSH SCT035CB SCT060 OVC100 19/15 Q1007 WHT BLU TEMPO AMB
VFR 19°C / 15°C 220º 6kt >10km - Few Clouds 3500ft
Scattered Clouds 6000ft
Overcast 10000ft
1006 Temporary: WHT ETHN 231220Z 22006KT 9999 FEW035CB SCT060 OVC100 19/15 Q1006 BLU BLU TEMPO WHT
VFR 20°C / 12°C 190º 11kt >10km - Few Clouds 3500ft
Broken Clouds 12000ft
Broken Clouds 20000ft
1006 Temporary: WHT ETHN 231120Z 19011KT 9999 FEW035TCU BKN120 BKN200 20/12 Q1006 BLU BLU TEMPO WHT
VFR 21°C / 14°C 170º 14kt >10km - Few Clouds 12000ft
Scattered Clouds 20000ft
1005 Temporary: WHT ETHN 231020Z 17014KT 9999 FEW120 SCT200 21/14 Q1005 BLU+BLU TEMPO WHT
VFR 18°C / 12°C 150º 13kt >10km - Scattered Clouds 11000ft
Broken Clouds 20000ft
1005 - ETHN 230920Z 15013KT 9999 SCT110 BKN200 18/12 Q1005 BLU+BLU
VFR 17°C / 13°C 150º 12kt >10km - Few Clouds 6000ft
Broken Clouds 11000ft
Broken Clouds 18000ft
1006 - ETHN 230820Z 15012KT 9999 FEW060 BKN110 BKN180 17/13 Q1006 BLU BLU
VFR 14°C / 12°C 120º 15kt >10km - Few Clouds 6000ft
Broken Clouds 9000ft
1006 - ETHN 230720Z 12015KT 9999 FEW060 BKN090 14/12 Q1006 BLU BLU
VFR 13°C / 12°C 110º 7kt >10km Light Rain 1.00mm precipitation Vertical Visibility of 0ft. 1008 - ETHN 230620Z 11007KT 9999 -RA BKN100 13/12 Q1008 BLU BLU
VFR 15°C / 10°C 260º 10kt >10km Light Rain 1.00mm precipitation Vertical Visibility of 0ft.
Broken Clouds 16000ft
1010 - ETHN 230520Z 26010KT 9999 -RA BKN100 BKN160 15/10 Q1010 BLU BLU
VFR 14°C / 9°C 120º 9kt >10km - Few Clouds 14000ft
Broken Clouds 15000ft
1008 - ETHN 230420Z 12009KT 9999 FEW140 BKN150 14/09 Q1008 BLU BLU
VFR 13°C / 9°C 110º 8kt >10km - Few Clouds 15000ft
Broken Clouds 36000ft
1008 - ETHN 230320Z 11008KT 9999 FEW150 BKN360 13/09 Q1008 BLU+

VFR

15°C / 14°C

[Mehr]
Wind 240º 10kt
Sichtweite >10km
Wetter Light Drizzle Light Rain 0.20mm precipitation
Wolken Vertical Visibility of 0ft.
Druck 1005
Änderung -
Roh ETHN 240020Z 24010KT 9999 -DZRA BKN041 15/14 Q1005 BLU

VFR

15°C / 14°C

[Mehr]
Wind 230º 8kt
Sichtweite >10km
Wetter -
Wolken Few Clouds 3200ft
Scattered Clouds 10000ft
Druck 1005
Änderung -
Roh ETHN 232320Z 23008KT 9999 FEW032 SCT100 15/14 Q1005 BLU+

VFR

15°C / 14°C

[Mehr]
Wind 240º 9kt
Sichtweite >10km
Wetter -
Wolken Few Clouds 6000ft
Scattered Clouds 14000ft
Druck 1005
Änderung -
Roh ETHN 232220Z 24009KT 9999 FEW060 SCT140 15/14 Q1005 BLU+

VFR

15°C / 14°C

[Mehr]
Wind 240º 14kt
Sichtweite >10km
Wetter -
Wolken Few Clouds 6000ft
Scattered Clouds 14000ft
Druck 1004
Änderung -
Roh ETHN 232120Z 24014KT 9999 FEW060 SCT140 15/14 Q1004 BLU+

VFR

16°C / 14°C

[Mehr]
Wind 230º 10kt
Sichtweite >10km
Wetter -
Wolken Few Clouds 11000ft
Broken Clouds 33000ft
Druck 1004
Änderung -
Roh ETHN 232020Z 23010KT 9999 FEW110 BKN330 16/14 Q1004 RESHRA BLU+

VFR

15°C / 14°C

[Mehr]
Wind 200º 11kt
Sichtweite >10km
Wetter -
Wolken Few Clouds 4000ft
Scattered Clouds 8000ft
Broken Clouds 16000ft
Druck 1003
Änderung -
Roh ETHN 231947Z 20011KT 9999 FEW040CB SCT080 BKN160 15/14 Q1003 RESHRA BLU

IFR

17°C / 14°C

[Mehr]
Wind 200º 9kt
Sichtweite 3000m
Wetter Showers Rain 3.00mm precipitation
Wolken Vertical Visibility of 0ft.
Broken Clouds 8000ft
Druck 1004
Änderung -
Roh ETHN 231925Z 20009KT 3000 SHRA BKN035CB BKN080 17/14 Q1004 YLO

VFR

17°C / 15°C

[Mehr]
Wind 170º 10kt
Sichtweite >10km
Wetter in the Vicinity Showers
Wolken Vertical Visibility of 0ft.
Overcast 13000ft
Druck 1002
Änderung -
Roh ETHN 231820Z 17010KT 9999 VCSH FEW020CB OVC130 17/15 Q1002 BLU

VFR

19°C / 16°C

[Mehr]
Wind 180º 10kt
Sichtweite >10km
Wetter -
Wolken Few Clouds 2000ft
Scattered Clouds 8000ft
Broken Clouds 13000ft
Druck 1003
Änderung -
Roh ETHN 231720Z 18010KT 9999 FEW020CB SCT080 BKN130 19/16 Q1003 BLU

VFR

21°C / 17°C

[Mehr]
Wind 210º 7kt
Sichtweite >10km
Wetter -
Wolken Few Clouds 2000ft
Scattered Clouds 10000ft
Broken Clouds 23000ft
Druck 1004
Änderung -
Roh ETHN 231620Z 21007KT 9999 FEW020 SCT100 BKN230 21/17 Q1004 BLU+

VFR

22°C / 17°C

[Mehr]
Wind 180º 6kt
Sichtweite >10km
Wetter -
Wolken Few Clouds 2000ft
Broken Clouds 24000ft
Druck 1003
Änderung -
Roh ETHN 231520Z 18006KT 9999 FEW020 BKN240 22/17 Q1003 BLU+FCST CANCEL

VFR

19°C / 15°C

[Mehr]
Wind 160º 3kt
Sichtweite >10km
Wetter -
Wolken Few Clouds 2000ft
Scattered Clouds 6000ft
Broken Clouds 10000ft
Druck 1003
Änderung Temporary: WHT
Roh ETHN 231420Z 16003KT 9999 FEW020 SCT060 BKN100 19/15 Q1003 BLU BLU TEMPO WHT

VFR

17°C / 15°C

[Mehr]
Wind 160º 12kt
Sichtweite >10km
Wetter -
Wolken Few Clouds 3500ft
Scattered Clouds 6000ft
Overcast 8000ft
Druck 1004
Änderung Temporary: WHT
Roh ETHN 231320Z 16012KT 9999 FEW035CB SCT060 OVC080 17/15 Q1004 BLU BLU TEMPO WHT

MVFR

19°C / 15°C

[Mehr]
Wind 220º 7kt
Sichtweite 7000m
Wetter in the Vicinity Showers
Wolken Vertical Visibility of 0ft.
Scattered Clouds 6000ft
Overcast 10000ft
Druck 1007
Änderung Temporary: AMB
Roh ETHN 231233Z 22007KT 7000 VCSH SCT035CB SCT060 OVC100 19/15 Q1007 WHT BLU TEMPO AMB

VFR

19°C / 15°C

[Mehr]
Wind 220º 6kt
Sichtweite >10km
Wetter -
Wolken Few Clouds 3500ft
Scattered Clouds 6000ft
Overcast 10000ft
Druck 1006
Änderung Temporary: WHT
Roh ETHN 231220Z 22006KT 9999 FEW035CB SCT060 OVC100 19/15 Q1006 BLU BLU TEMPO WHT

VFR

20°C / 12°C

[Mehr]
Wind 190º 11kt
Sichtweite >10km
Wetter -
Wolken Few Clouds 3500ft
Broken Clouds 12000ft
Broken Clouds 20000ft
Druck 1006
Änderung Temporary: WHT
Roh ETHN 231120Z 19011KT 9999 FEW035TCU BKN120 BKN200 20/12 Q1006 BLU BLU TEMPO WHT

VFR

21°C / 14°C

[Mehr]
Wind 170º 14kt
Sichtweite >10km
Wetter -
Wolken Few Clouds 12000ft
Scattered Clouds 20000ft
Druck 1005
Änderung Temporary: WHT
Roh ETHN 231020Z 17014KT 9999 FEW120 SCT200 21/14 Q1005 BLU+BLU TEMPO WHT

VFR

18°C / 12°C

[Mehr]
Wind 150º 13kt
Sichtweite >10km
Wetter -
Wolken Scattered Clouds 11000ft
Broken Clouds 20000ft
Druck 1005
Änderung -
Roh ETHN 230920Z 15013KT 9999 SCT110 BKN200 18/12 Q1005 BLU+BLU

VFR

17°C / 13°C

[Mehr]
Wind 150º 12kt
Sichtweite >10km
Wetter -
Wolken Few Clouds 6000ft
Broken Clouds 11000ft
Broken Clouds 18000ft
Druck 1006
Änderung -
Roh ETHN 230820Z 15012KT 9999 FEW060 BKN110 BKN180 17/13 Q1006 BLU BLU

VFR

14°C / 12°C

[Mehr]
Wind 120º 15kt
Sichtweite >10km
Wetter -
Wolken Few Clouds 6000ft
Broken Clouds 9000ft
Druck 1006
Änderung -
Roh ETHN 230720Z 12015KT 9999 FEW060 BKN090 14/12 Q1006 BLU BLU

VFR

13°C / 12°C

[Mehr]
Wind 110º 7kt
Sichtweite >10km
Wetter Light Rain 1.00mm precipitation
Wolken Vertical Visibility of 0ft.
Druck 1008
Änderung -
Roh ETHN 230620Z 11007KT 9999 -RA BKN100 13/12 Q1008 BLU BLU

VFR

15°C / 10°C

[Mehr]
Wind 260º 10kt
Sichtweite >10km
Wetter Light Rain 1.00mm precipitation
Wolken Vertical Visibility of 0ft.
Broken Clouds 16000ft
Druck 1010
Änderung -
Roh ETHN 230520Z 26010KT 9999 -RA BKN100 BKN160 15/10 Q1010 BLU BLU

VFR

14°C / 9°C

[Mehr]
Wind 120º 9kt
Sichtweite >10km
Wetter -
Wolken Few Clouds 14000ft
Broken Clouds 15000ft
Druck 1008
Änderung -
Roh ETHN 230420Z 12009KT 9999 FEW140 BKN150 14/09 Q1008 BLU BLU

VFR

13°C / 9°C

[Mehr]
Wind 110º 8kt
Sichtweite >10km
Wetter -
Wolken Few Clouds 15000ft
Broken Clouds 36000ft
Druck 1008
Änderung -
Roh ETHN 230320Z 11008KT 9999 FEW150 BKN360 13/09 Q1008 BLU+

TAF für Niederstetten (ETHN)

From till


From till Wind 160º 10kt. Visibility 10km or more. Broken Clouds 10000ft.
Temporarly from till Wind 230º 20kt. Gust 30kt. Visibility 6000m. Showers Rain . Scattered Clouds 4000ft. Broken Clouds 8000ft.

Roh: TAF ETHN 231302Z 2314/2323 16010KT 9999 NSW BKN100 TEMPO 2314/2320 23020G30KT 6000 SHRA SCT040TCU BKN080

rainNOW: Regenvorhersage für Niederstetten und Umgebung (25km Radius)

0.1 mm
0.6 mm
0.9 mm
0.4 mm
1.1 mm
0.1 mm
0.0 mm
0.4 mm
0.1 mm
0.1 mm
0.0 mm
0.0 mm

Radar für Niederstetten

Nieselregen
Leicht
Moderat
Stark
Sehr schwer
Hagel

Die Ortsmarkierung zeigt auf Niederstetten. Diese Animation zeigt das Niederschlagsradar der letzten Stunde, sowie eine 2h Vorhersage. Nieselregen und leichter Schneefall können für das Radar unsichtbar sein. Die Niederschlagsintensität ist farbcodiert von Hellblau bis Orange.
Copyright 2022 Deutscher Wetterdienst / meteoblue.

Aktuelle Satelliten- und Regenbilder für Niederstetten, Deutschland

Die Standortmarkierung ist platziert auf Niederstetten. [Mehr]

Das Echtzeit-Satellitenbild kombiniert sichtbares Licht während des Tages mit Infrarotstrahlung während der Nacht. Nachts ist das Bild nicht dunkel, da Infrarotstrahlung Temperaturunterschiede erkennen kann. Leider sind niedrige Wolken und Nebel nur schwer von den Bodentemperaturen zu unterscheiden und können daher nachts fast unsichtbar sein. Meteosat-Satellitenbilder für Europa werden alle 5 Minuten in Echtzeit aktualisiert. Die Bilder GOES-16 / GOES-17 (Nord- und Südamerika) und Himawari (Asien) werden alle 10 Minuten aktualisiert.

Niederschläge werden von Radar und Satelliten berechnet. Nachts sind die Niederschlagsberechnungen durch die Satelliten weniger genau als tagsüber. Orangene Kreuze markieren Stellen, an denen Blitze aufgenommen wurden (über Europa).

Copyright 2022 EUMETSAT / meteoblue. Blitzdaten zur Verfügung gestellt von nowcast.

Zum Anfang